createdAt,value
2019-03-25T20:34:33.360Z,9.4
2019-03-25T20:34:47.842Z,8.1
2019-03-25T20:35:01.113Z,5
2019-03-25T20:35:13.519Z,6
2019-03-25T20:35:27.648Z,5.6
2019-03-25T20:35:40.222Z,11.1
2019-03-25T20:35:52.934Z,12.8
2019-03-25T20:36:05.420Z,12.8
2019-03-25T20:36:18.104Z,5.6
2019-03-25T20:36:30.666Z,6.4
2019-03-25T20:36:44.357Z,7.9
2019-03-25T20:36:56.895Z,4.9
2019-03-25T20:37:09.531Z,7.2
2019-03-25T20:37:22.234Z,8.4
2019-03-25T20:37:35.026Z,7.1
2019-03-25T20:37:47.681Z,7.6
2019-03-25T20:38:00.620Z,7.4
2019-03-25T20:38:13.492Z,6.5
2019-03-25T20:38:26.227Z,6.6
2019-03-25T20:38:39.002Z,6.3
2019-03-25T20:38:54.982Z,6.3
2019-03-25T20:39:08.198Z,7.4
2019-03-25T20:39:22.011Z,10.2
2019-03-25T20:39:34.982Z,9.9
2019-03-25T20:39:47.652Z,6.6
2019-03-25T20:40:00.448Z,8.1
2019-03-25T20:40:12.933Z,8.8
2019-03-25T20:40:25.435Z,7.6
2019-03-25T20:40:38.103Z,5.9
2019-03-25T20:40:50.490Z,4.7
2019-03-25T20:41:04.089Z,5.6
2019-03-25T20:41:16.945Z,8.4
2019-03-25T20:41:29.374Z,8.9
2019-03-25T20:41:41.957Z,5.3
2019-03-25T20:41:54.372Z,4.4
2019-03-25T20:42:07.896Z,6.2
2019-03-25T20:42:20.448Z,6.9
2019-03-25T20:42:32.845Z,7.8
2019-03-25T20:42:47.271Z,5.5
2019-03-25T20:42:59.787Z,5.9
2019-03-25T20:43:12.279Z,6.5
2019-03-25T20:43:24.653Z,4.8
2019-03-25T20:43:38.075Z,5.4
2019-03-25T20:43:50.541Z,4.9
2019-03-25T20:44:03.722Z,5.3
2019-03-25T20:44:16.836Z,6.4
2019-03-25T20:44:28.913Z,9.4
2019-03-25T20:44:40.979Z,7.6
2019-03-25T20:44:53.193Z,7.1
2019-03-25T20:45:06.419Z,6.2
2019-03-25T20:45:20.772Z,9.4
2019-03-25T20:45:34.036Z,8.8
2019-03-25T20:45:46.460Z,6.3
2019-03-25T20:45:58.756Z,5
2019-03-25T20:46:11.010Z,7.3
2019-03-25T20:46:23.890Z,6.1
2019-03-25T20:46:36.440Z,6.2
2019-03-25T20:46:48.710Z,8.6
2019-03-25T20:47:00.986Z,8.1
2019-03-25T20:47:13.192Z,8.1
2019-03-25T20:47:25.390Z,6.1
2019-03-25T20:47:37.597Z,5.6
2019-03-25T20:47:49.838Z,6.3
2019-03-25T20:48:02.055Z,7.7
2019-03-25T20:48:14.267Z,6.5
2019-03-25T20:48:26.549Z,8.4
2019-03-25T20:48:39.663Z,7.1
2019-03-25T20:48:51.788Z,6.7
2019-03-25T20:49:03.973Z,3.8
2019-03-25T20:49:16.096Z,4.8
2019-03-25T20:49:28.244Z,6.3
2019-03-25T20:49:40.367Z,10
2019-03-25T20:49:52.531Z,6.9
2019-03-25T20:50:04.671Z,6.7
2019-03-25T20:50:16.893Z,4.8
2019-03-25T20:50:29.121Z,4.8
2019-03-25T20:50:41.432Z,6.8
2019-03-25T20:50:53.588Z,5.5
2019-03-25T20:51:05.847Z,5.1
2019-03-25T20:51:18.107Z,7.9
2019-03-25T20:51:30.387Z,10.4
2019-03-25T20:51:42.424Z,8
2019-03-25T20:51:54.552Z,4.4
2019-03-25T20:52:06.653Z,4
2019-03-25T20:52:18.755Z,5.4
2019-03-25T20:52:32.249Z,8.1
2019-03-25T20:52:44.719Z,7.7
2019-03-25T20:52:58.168Z,8.1
2019-03-25T20:53:10.640Z,6
2019-03-25T20:53:23.890Z,3.8
2019-03-25T20:53:36.215Z,8.3
2019-03-25T20:53:48.565Z,8.7
2019-03-25T20:54:00.879Z,4.5
2019-03-25T20:54:13.014Z,5.5
2019-03-25T20:54:25.110Z,7.1
2019-03-25T20:54:37.226Z,5.1
2019-03-25T20:54:49.356Z,4.6
2019-03-25T20:55:02.460Z,6.1
2019-03-25T20:55:14.540Z,5.7
2019-03-25T20:55:26.644Z,3.4
2019-03-25T20:55:39.725Z,3.6
2019-03-25T20:55:51.800Z,7.1
2019-03-25T20:56:04.914Z,8.5
2019-03-25T20:56:16.993Z,5.8
2019-03-25T20:56:30.179Z,8.2
2019-03-25T20:56:43.470Z,9.7
2019-03-25T20:56:55.875Z,7.1
2019-03-25T20:57:08.240Z,6.3
2019-03-25T20:57:20.492Z,5.1
2019-03-25T20:57:32.796Z,5.9
2019-03-25T20:57:47.019Z,5.2
2019-03-25T20:58:00.346Z,6.8
2019-03-25T20:58:12.569Z,6.7
2019-03-25T20:58:24.654Z,6.2
2019-03-25T20:58:36.773Z,6.5
2019-03-25T20:58:49.076Z,6.5
2019-03-25T20:59:01.413Z,6.7
2019-03-25T20:59:13.846Z,8.5
2019-03-25T20:59:26.427Z,6.9
2019-03-25T20:59:38.880Z,3.9
2019-03-25T20:59:51.493Z,4.3
2019-03-25T21:00:03.918Z,6.6
2019-03-25T21:00:16.361Z,8.3
2019-03-25T21:00:29.715Z,5.3
2019-03-25T21:00:42.130Z,6.1
2019-03-25T21:00:55.568Z,6.8
2019-03-25T21:01:07.858Z,8.1
2019-03-25T21:01:20.221Z,8.7
2019-03-25T21:01:32.663Z,6.3
2019-03-25T21:01:45.178Z,4.2
2019-03-25T21:01:57.534Z,3.8
2019-03-25T21:02:10.071Z,5.8
2019-03-25T21:02:22.656Z,12.8
2019-03-25T21:02:44.661Z,14.5
2019-03-25T21:02:54.571Z,7.5
2019-03-25T21:03:06.867Z,4.7
2019-03-25T21:03:19.511Z,3.9
2019-03-25T21:03:32.167Z,4.6
2019-03-25T21:03:44.621Z,6.5
2019-03-25T21:03:58.277Z,6.9
2019-03-25T21:04:10.883Z,6.1
2019-03-25T21:04:23.395Z,5.1
2019-03-25T21:04:35.942Z,6.5
2019-03-25T21:04:48.532Z,5.9
2019-03-25T21:05:01.317Z,5.5
2019-03-25T21:05:14.076Z,5.4
2019-03-25T21:05:27.780Z,4.7
2019-03-25T21:05:40.506Z,5.2
2019-03-25T21:05:53.203Z,5.4
2019-03-25T21:06:06.095Z,6.9
2019-03-25T21:06:18.926Z,6.5
2019-03-25T21:06:31.686Z,6.7
2019-03-25T21:06:44.349Z,7.6
2019-03-25T21:06:59.029Z,7.9
2019-03-25T21:07:12.773Z,6.8
2019-03-25T21:07:25.175Z,7.8
2019-03-25T21:07:37.882Z,5.3
2019-03-25T21:07:50.250Z,7.8
2019-03-25T21:08:02.581Z,8.4
2019-03-25T21:08:15.008Z,8.2
2019-03-25T21:08:28.508Z,5.9
2019-03-25T21:08:40.932Z,4.6
2019-03-25T21:08:53.185Z,2.9
2019-03-25T21:09:05.471Z,3
2019-03-25T21:09:17.991Z,5.6
2019-03-25T21:09:31.619Z,6.1
2019-03-25T21:09:45.180Z,6.7
2019-03-25T21:09:57.787Z,6.9
2019-03-25T21:10:10.653Z,5.8
2019-03-25T21:10:23.218Z,6.9
2019-03-25T21:10:35.957Z,6.2
2019-03-25T21:10:49.383Z,7.2
2019-03-25T21:11:01.646Z,7.2
2019-03-25T21:11:13.863Z,4.4
2019-03-25T21:11:26.401Z,5
2019-03-25T21:11:38.908Z,5
2019-03-25T21:11:51.349Z,4
2019-03-25T21:12:03.639Z,3.5
2019-03-25T21:12:16.087Z,3.3
2019-03-25T21:12:28.440Z,4
2019-03-25T21:12:42.793Z,4.6
2019-03-25T21:12:55.146Z,4.8
2019-03-25T21:13:07.516Z,6.5
2019-03-25T21:13:19.813Z,6.7
2019-03-25T21:13:32.458Z,5.5
2019-03-25T21:13:44.960Z,6.9
2019-03-25T21:13:58.609Z,7.7
2019-03-25T21:14:11.992Z,5.3
2019-03-25T21:14:24.516Z,5.6
2019-03-25T21:14:36.974Z,7.6
2019-03-25T21:14:49.579Z,7.9
2019-03-25T21:15:01.897Z,5.9
2019-03-25T21:15:15.323Z,5.1
2019-03-25T21:15:27.793Z,4.4
2019-03-25T21:15:41.286Z,8.8
2019-03-25T21:15:53.992Z,9.2
2019-03-25T21:16:06.454Z,8
2019-03-25T21:16:19.086Z,3.2
2019-03-25T21:16:31.601Z,4
2019-03-25T21:16:44.117Z,6.2
2019-03-25T21:16:56.634Z,5.4
2019-03-25T21:17:09.161Z,5.1
2019-03-25T21:17:21.685Z,6.5
2019-03-25T21:17:34.113Z,8.1
2019-03-25T21:17:46.503Z,7.1
2019-03-25T21:18:00.970Z,3.8
2019-03-25T21:18:13.454Z,3.5
2019-03-25T21:18:27.152Z,4.2
2019-03-25T21:18:39.615Z,5.8
2019-03-25T21:18:52.969Z,7.1
2019-03-25T21:19:05.135Z,10.2
2019-03-25T21:19:17.441Z,8.9
2019-03-25T21:19:29.820Z,7.6
2019-03-25T21:19:42.027Z,7.1
2019-03-25T21:19:54.236Z,5.5
2019-03-25T21:20:06.390Z,5.9
2019-03-25T21:20:19.555Z,5
2019-03-25T21:20:31.781Z,4.1
2019-03-25T21:20:44.172Z,3.1
2019-03-25T21:20:56.593Z,3.8
2019-03-25T21:21:08.941Z,7.3
2019-03-25T21:21:21.317Z,7.2
2019-03-25T21:21:33.864Z,7.7
2019-03-25T21:21:46.339Z,3.6
2019-03-25T21:22:00.223Z,3.4
2019-03-25T21:22:13.679Z,3.4
2019-03-25T21:22:26.235Z,3
2019-03-25T21:22:38.759Z,2.5
2019-03-25T21:22:51.238Z,4.9
2019-03-25T21:23:03.667Z,6.7
2019-03-25T21:23:16.099Z,7.4
2019-03-25T21:23:28.547Z,5.7
2019-03-25T21:23:41.155Z,4.2
2019-03-25T21:23:55.305Z,3.2
2019-03-25T21:24:08.216Z,3
2019-03-25T21:24:21.245Z,4.6
2019-03-25T21:24:34.023Z,5.7
2019-03-25T21:24:46.442Z,4.8
2019-03-25T21:24:58.764Z,4.7
2019-03-25T21:25:11.136Z,5.8
2019-03-25T21:25:23.688Z,4.5
2019-03-25T21:25:37.512Z,3.9
2019-03-25T21:25:50.373Z,4.9
2019-03-25T21:26:02.949Z,4.2
2019-03-25T21:26:16.251Z,4.8
2019-03-25T21:26:28.602Z,5.5
2019-03-25T21:26:41.015Z,4.1
2019-03-25T21:26:53.494Z,3.8
2019-03-25T21:27:06.281Z,3.9
2019-03-25T21:27:19.018Z,5.5
2019-03-25T21:27:31.838Z,5.2
2019-03-25T21:27:44.806Z,3.9
2019-03-25T21:27:57.458Z,5.7
2019-03-25T21:28:10.068Z,5.9
2019-03-25T21:28:23.717Z,5
2019-03-25T21:28:37.178Z,4.7
2019-03-25T21:28:49.354Z,3.5
2019-03-25T21:29:01.590Z,4.6
2019-03-25T21:30:19.843Z,8.9
2019-03-25T21:30:46.901Z,9.3
2019-03-25T21:30:52.862Z,9.4
2019-03-25T21:31:04.992Z,12.8
2019-03-25T21:31:17.100Z,14.4
2019-03-25T21:31:30.119Z,13.3
2019-03-25T21:31:43.240Z,10.4
2019-03-25T21:31:56.309Z,10.3
2019-03-25T21:32:08.349Z,9
2019-03-25T21:32:20.526Z,9.2
2019-03-25T21:32:32.594Z,8.5
2019-03-25T21:32:57.486Z,9.3
2019-03-25T21:33:04.734Z,10.6
2019-03-25T21:33:16.719Z,10.2
2019-03-25T21:33:28.848Z,10.6
2019-03-25T21:33:40.821Z,12.3
2019-03-25T21:33:52.945Z,12.9
2019-03-25T21:34:05.002Z,10.6
2019-03-25T21:34:17.273Z,9.4
2019-03-25T21:34:29.355Z,10.4
2019-03-25T21:34:41.530Z,10.6
2019-03-25T21:34:53.597Z,10.7
2019-03-25T21:35:05.705Z,8.9
2019-03-25T21:35:18.781Z,7.7
2019-03-25T21:35:30.822Z,9.3
2019-03-25T21:35:42.992Z,10.9
2019-03-25T21:35:55.060Z,11.4
2019-03-25T21:36:07.100Z,8.8
2019-03-25T21:36:19.081Z,9.9
2019-03-25T21:36:31.116Z,10.4
2019-03-25T21:36:44.235Z,11
2019-03-25T21:36:56.263Z,12.3
2019-03-25T21:37:09.348Z,10
2019-03-25T21:37:21.404Z,8.8
2019-03-25T21:37:33.478Z,9.1
2019-03-25T21:37:45.592Z,10.9
2019-03-25T21:37:57.679Z,15.5
2019-03-25T21:38:09.725Z,17
2019-03-25T21:38:21.838Z,14.9
2019-03-25T21:38:33.924Z,9.2
2019-03-25T21:38:47.083Z,9.6
2019-03-25T21:39:00.043Z,11.3
2019-03-25T21:39:13.071Z,10.4
2019-03-25T21:39:26.176Z,10.5
2019-03-25T21:39:38.231Z,11
2019-03-25T21:39:51.369Z,10
2019-03-25T21:40:03.482Z,9
2019-03-25T21:40:15.620Z,13.1
2019-03-25T21:40:27.632Z,13.3
2019-03-25T21:40:40.760Z,11.8
2019-03-25T21:40:54.944Z,10.4
2019-03-25T21:41:07.709Z,12.9
2019-03-25T21:41:19.792Z,13.7
2019-03-25T21:41:31.777Z,12.1
2019-03-25T21:41:43.861Z,12.8
2019-03-25T21:41:56.872Z,13
2019-03-25T21:42:09.930Z,15.1
2019-03-25T21:42:23.095Z,12.8
2019-03-25T21:42:36.072Z,13.3
2019-03-25T21:42:48.148Z,11.7
2019-03-25T21:43:00.216Z,13.1
2019-03-25T21:43:14.324Z,15.1
2019-03-25T21:43:26.404Z,11.6
2019-03-25T21:43:38.525Z,12.6
2019-03-25T21:43:50.590Z,12
2019-03-25T21:44:02.731Z,11.4
2019-03-25T21:44:14.841Z,9
2019-03-25T21:44:27.199Z,10.6
2019-03-25T21:44:39.301Z,13.1
2019-03-25T21:44:51.358Z,14.3
2019-03-25T21:45:03.452Z,12.6
2019-03-25T21:45:15.469Z,9.3
2019-03-25T21:45:28.484Z,9.5
2019-03-25T21:45:40.554Z,14.3
2019-03-25T21:45:52.739Z,13.1
2019-03-25T21:46:04.662Z,12.1
2019-03-25T21:46:17.751Z,10.9
2019-03-25T21:46:30.782Z,13.2
2019-03-25T21:46:42.858Z,13.7
2019-03-25T21:46:54.932Z,14.1
2019-03-25T21:47:07.024Z,11.6
2019-03-25T21:47:19.125Z,11.2
2019-03-25T21:47:32.149Z,12.2
2019-03-25T21:47:44.192Z,11.7
2019-03-25T21:47:56.256Z,12.6
2019-03-25T21:48:08.340Z,15
2019-03-25T21:48:20.523Z,13.2
2019-03-25T21:48:33.501Z,10.9
2019-03-25T21:48:47.595Z,9.3
2019-03-25T21:49:00.626Z,10.7
2019-03-25T21:49:13.648Z,11.7
2019-03-25T21:49:25.759Z,12.5
2019-03-25T21:49:38.800Z,17.700001
2019-03-25T21:49:51.895Z,15.2
2019-03-25T21:50:04.933Z,13.7
2019-03-25T21:50:17.104Z,13.9
2019-03-25T21:50:30.204Z,12.9
2019-03-25T21:50:42.281Z,12.4
2019-03-25T21:50:54.269Z,10.1
2019-03-25T21:51:06.381Z,13.5
2019-03-25T21:51:19.423Z,13.7
2019-03-25T21:51:31.521Z,12.9
2019-03-25T21:51:44.593Z,13.9
2019-03-25T21:51:56.701Z,15.5
2019-03-25T21:52:08.702Z,16
2019-03-25T21:52:20.725Z,13.6
2019-03-25T21:52:32.788Z,12.4
2019-03-25T21:52:45.968Z,11.3
2019-03-25T21:52:57.976Z,16.1
2019-03-25T21:53:10.297Z,17
2019-03-25T21:53:22.374Z,19.1
2019-03-25T21:53:34.373Z,19.799999
2019-03-25T21:53:46.421Z,18
2019-03-25T21:54:00.483Z,18.6
2019-03-25T21:54:12.530Z,20.6
2019-03-25T21:54:24.577Z,17.6
2019-03-25T21:54:37.697Z,13.6
2019-03-25T21:54:49.811Z,12.8
2019-03-25T21:55:01.861Z,14.2
2019-03-25T21:55:13.913Z,16.6
2019-03-25T21:55:26.054Z,12.6
2019-03-25T21:55:38.019Z,12.7
2019-03-25T21:55:50.056Z,12.9
2019-03-25T21:56:03.095Z,11.4
2019-03-25T21:56:15.283Z,11.1
2019-03-25T21:56:29.419Z,15.1
2019-03-25T21:56:41.489Z,14.9
2019-03-25T21:56:54.462Z,15.6
2019-03-25T21:57:08.512Z,12.9
2019-03-25T21:57:20.625Z,11.6
2019-03-25T21:57:32.670Z,10.8
2019-03-25T21:57:44.761Z,9.4
2019-03-25T21:57:56.745Z,14.6
2019-03-25T21:58:08.822Z,18.299999
2019-03-25T21:58:21.934Z,13.8
2019-03-25T21:58:33.922Z,12.8
2019-03-25T21:58:46.068Z,11
2019-03-25T21:59:00.395Z,14.4
2019-03-25T21:59:13.199Z,14.7
2019-03-25T21:59:27.263Z,14.7
2019-03-25T21:59:39.368Z,17.1
2019-03-25T21:59:51.541Z,16
2019-03-25T22:00:03.553Z,17.1
2019-03-25T22:00:16.610Z,18.799999
2019-03-25T22:00:28.621Z,20.799999
2019-03-25T22:00:41.418Z,17.200001
2019-03-25T22:00:53.503Z,16.9
2019-03-25T22:01:05.543Z,16.4
2019-03-25T22:01:17.753Z,16.1
2019-03-25T22:01:29.652Z,12.2
2019-03-25T22:01:41.766Z,12
2019-03-25T22:01:53.826Z,15.7
2019-03-25T22:02:05.941Z,18.200001
2019-03-25T22:02:18.018Z,17.299999
2019-03-25T22:02:30.059Z,19.299999
2019-03-25T22:02:42.131Z,16.6
2019-03-25T22:02:54.173Z,16.6
2019-03-25T22:03:14.219Z,19.700001
2019-03-25T22:03:26.275Z,18.700001
2019-03-25T22:03:39.324Z,14.8
2019-03-25T22:03:51.375Z,14.3
2019-03-25T22:04:04.441Z,14.7
2019-03-25T22:04:16.471Z,12.5
2019-03-25T22:04:29.530Z,14
2019-03-25T22:04:41.576Z,13.8
2019-03-25T22:04:53.632Z,17.4
2019-03-25T22:05:06.685Z,18.9
2019-03-25T22:05:18.769Z,15.1
2019-03-25T22:05:30.817Z,15.2
2019-03-25T22:05:42.862Z,17.9
2019-03-25T22:05:54.914Z,22.1
2019-03-25T22:06:07.007Z,22.299999
2019-03-25T22:06:19.053Z,18.200001
2019-03-25T22:06:31.145Z,14.4
2019-03-25T22:06:43.192Z,12.5
2019-03-25T22:06:55.234Z,13.1
2019-03-25T22:07:07.285Z,16.200001
2019-03-25T22:07:19.406Z,13.6
2019-03-25T22:07:31.475Z,12.6
2019-03-25T22:07:43.562Z,13.3
2019-03-25T22:07:55.604Z,19.299999
2019-03-25T22:08:07.669Z,20.200001
2019-03-25T22:08:19.702Z,24
2019-03-25T22:08:31.779Z,19.299999
2019-03-25T22:08:43.829Z,15.4
2019-03-25T22:08:56.893Z,15.1
2019-03-25T22:09:08.969Z,16.5
2019-03-25T22:09:21.049Z,17.700001
2019-03-25T22:09:33.094Z,18.1
2019-03-25T22:09:45.154Z,19.299999
2019-03-25T22:09:57.203Z,19
2019-03-25T22:10:09.267Z,15.6
2019-03-25T22:10:21.327Z,14
2019-03-25T22:10:33.396Z,14.7
2019-03-25T22:10:47.440Z,18.1
2019-03-25T22:11:00.481Z,17.9
2019-03-25T22:11:12.543Z,16.299999
2019-03-25T22:11:24.583Z,16.299999
2019-03-25T22:11:36.633Z,14.6
2019-03-25T22:11:48.692Z,12.9
2019-03-25T22:12:00.749Z,14.6
2019-03-25T22:12:12.866Z,16
2019-03-25T22:12:24.918Z,14.6
2019-03-25T22:12:36.986Z,16.799999
2019-03-25T22:12:49.044Z,17.700001
2019-03-25T22:13:01.098Z,12.1
2019-03-25T22:13:13.140Z,13.4
2019-03-25T22:13:25.187Z,12.9
2019-03-25T22:13:37.218Z,11.1
2019-03-25T22:13:49.299Z,13.4
2019-03-25T22:14:01.362Z,16.700001
2019-03-25T22:14:14.408Z,16.9
2019-03-25T22:14:26.465Z,16.1
2019-03-25T22:14:39.586Z,15.9
2019-03-25T22:14:51.640Z,16.200001
2019-03-25T22:15:03.694Z,17.5
2019-03-25T22:15:15.758Z,13.1
2019-03-25T22:15:27.911Z,10.5
2019-03-25T22:15:39.978Z,10.6
2019-03-25T22:15:52.027Z,14.8
2019-03-25T22:16:04.076Z,18.799999
2019-03-25T22:16:16.136Z,17.4
2019-03-25T22:16:28.228Z,18.9
2019-03-25T22:16:40.266Z,18.200001
2019-03-25T22:16:52.321Z,17.700001
2019-03-25T22:17:04.364Z,14.9
2019-03-25T22:17:16.402Z,13.8
2019-03-25T22:17:29.453Z,15.2
2019-03-25T22:17:41.523Z,20.200001
2019-03-25T22:17:53.607Z,17.299999
2019-03-25T22:18:05.658Z,17.299999
2019-03-25T22:18:17.687Z,19.6
2019-03-25T22:18:31.745Z,21.299999
2019-03-25T22:18:43.793Z,19
2019-03-25T22:18:55.845Z,13.1
2019-03-25T22:19:07.877Z,14.7
2019-03-25T22:19:19.946Z,16.5
2019-03-25T22:19:32.006Z,13.9
2019-03-25T22:19:44.066Z,15
2019-03-25T22:19:56.106Z,19.799999
2019-03-25T22:20:08.185Z,21.200001
2019-03-25T22:20:20.243Z,21.1
2019-03-25T22:20:32.298Z,17.700001
2019-03-25T22:20:44.331Z,14.3
2019-03-25T22:20:56.984Z,17.9
2019-03-25T22:21:09.032Z,20.9
2019-03-25T22:21:21.091Z,22.200001
2019-03-25T22:21:33.134Z,19
2019-03-25T22:21:45.208Z,20.700001
2019-03-25T22:21:57.248Z,21.200001
2019-03-25T22:22:09.304Z,23.700001
2019-03-25T22:22:21.348Z,23.200001
2019-03-25T22:22:33.383Z,21.9
2019-03-25T22:22:45.444Z,23.6
2019-03-25T22:22:57.530Z,25.200001
2019-03-25T22:23:09.579Z,20.700001
2019-03-25T22:23:21.623Z,14.8
2019-03-25T22:23:33.668Z,17.4
2019-03-25T22:23:45.726Z,19.799999
2019-03-25T22:23:58.769Z,22
2019-03-25T22:24:10.804Z,19
2019-03-25T22:24:22.877Z,19.4
2019-03-25T22:24:34.934Z,18.799999
2019-03-25T22:24:47.003Z,19.299999
2019-03-25T22:24:59.046Z,19.6
2019-03-25T22:25:11.083Z,16.799999
2019-03-25T22:25:24.158Z,18.9
2019-03-25T22:25:36.204Z,18.6
2019-03-25T22:25:48.360Z,16.200001
2019-03-25T22:26:00.446Z,15.3
2019-03-25T22:26:12.490Z,17.200001
2019-03-25T22:26:24.552Z,21.200001
2019-03-25T22:26:36.585Z,21.1
2019-03-25T22:26:48.648Z,17.299999
2019-03-25T22:27:00.856Z,22.6
2019-03-25T22:27:12.964Z,20.799999
2019-03-25T22:27:25.022Z,16
2019-03-25T22:27:37.084Z,12.8
2019-03-25T22:27:50.138Z,14.3
2019-03-25T22:28:02.191Z,17.700001
2019-03-25T22:28:14.279Z,20.700001
2019-03-25T22:28:26.349Z,20.4
2019-03-25T22:28:39.398Z,14.9
2019-03-25T22:28:51.441Z,16.200001
2019-03-25T22:29:03.489Z,22.1
2019-03-25T22:29:15.539Z,24.799999
2019-03-25T22:29:27.646Z,20.700001
2019-03-25T22:29:39.678Z,19.1
2019-03-25T22:29:51.742Z,16.6
2019-03-25T22:30:03.797Z,15.7
2019-03-25T22:30:15.878Z,18.6
2019-03-25T22:30:29.920Z,22.4
2019-03-25T22:30:42.012Z,22.299999
2019-03-25T22:30:54.125Z,22.799999
2019-03-25T22:31:06.213Z,23.4
2019-03-25T22:31:18.314Z,20.5
2019-03-25T22:31:30.414Z,19
2019-03-25T22:31:42.469Z,19.4
2019-03-25T22:31:54.521Z,20.299999
2019-03-25T22:32:06.581Z,24.5
2019-03-25T22:32:18.637Z,20.9
2019-03-25T22:32:30.689Z,18.700001
2019-03-25T22:32:43.794Z,16.4
2019-03-25T22:32:55.858Z,14.6
2019-03-25T22:33:07.912Z,14.5
2019-03-25T22:33:26.901Z,19.799999
2019-03-25T22:33:38.989Z,18.4
2019-03-25T22:33:51.050Z,19.200001
2019-03-25T22:34:03.167Z,25.1
2019-03-25T22:34:16.241Z,21.5
2019-03-25T22:34:28.318Z,14.1
2019-03-25T22:34:40.382Z,15.9
2019-03-25T22:34:52.436Z,20.1
2019-03-25T22:35:04.491Z,17.700001
2019-03-25T22:35:17.562Z,20
2019-03-25T22:35:29.642Z,19.5
2019-03-25T22:35:41.774Z,23.9
2019-03-25T22:35:53.782Z,22
2019-03-25T22:36:06.857Z,23.200001
2019-03-25T22:36:18.941Z,20.1
2019-03-25T22:36:31.021Z,19.6
2019-03-25T22:36:44.136Z,18.4
2019-03-25T22:36:57.190Z,21.6
2019-03-25T22:37:09.253Z,22.5
2019-03-25T22:37:21.350Z,19.1
2019-03-25T22:37:33.415Z,19.799999
2019-03-25T22:37:46.271Z,18
2019-03-25T22:37:58.350Z,18.200001
2019-03-25T22:38:10.414Z,19
2019-03-25T22:38:22.474Z,26.5
2019-03-25T22:38:34.523Z,26.700001
2019-03-25T22:38:46.603Z,21.1
2019-03-25T22:38:59.646Z,20
2019-03-25T22:39:11.690Z,18.5
2019-03-25T22:39:23.784Z,19.799999
2019-03-25T22:39:35.857Z,20.4
2019-03-25T22:39:47.915Z,21.200001
2019-03-25T22:40:00.981Z,21.299999
2019-03-25T22:40:13.035Z,24.9
2019-03-25T22:40:25.145Z,22.1
2019-03-25T22:40:37.203Z,19.6
2019-03-25T22:40:49.289Z,15
2019-03-25T22:41:02.339Z,14.2
2019-03-25T22:41:15.393Z,20.799999
2019-03-25T22:41:28.170Z,21.700001
2019-03-25T22:41:41.198Z,19.9
2019-03-25T22:41:53.254Z,19.5
2019-03-25T22:42:05.294Z,24.299999
2019-03-25T22:42:17.349Z,19.9
2019-03-25T22:42:29.460Z,18.4
2019-03-25T22:42:41.527Z,14
2019-03-25T22:42:53.619Z,18.5
2019-03-25T22:43:05.685Z,20.299999
2019-03-25T22:43:17.764Z,18.6
2019-03-25T22:43:29.830Z,20.700001
2019-03-25T22:43:41.883Z,20.299999
2019-03-25T22:43:53.949Z,17.6
2019-03-25T22:44:06.051Z,21.9
2019-03-25T22:44:18.115Z,19.700001
2019-03-25T22:44:30.192Z,19
2019-03-25T22:44:43.264Z,22.4
2019-03-25T22:44:55.350Z,25
2019-03-25T22:45:07.402Z,24.299999
2019-03-25T22:45:19.473Z,20.6
2019-03-25T22:45:31.539Z,22.799999
2019-03-25T22:45:44.576Z,29.299999
2019-03-25T22:45:56.638Z,28.700001
2019-03-25T22:46:08.719Z,27.1
2019-03-25T22:46:20.766Z,23.799999
2019-03-25T22:46:32.832Z,22.4
2019-03-25T22:46:44.871Z,25.299999
2019-03-25T22:46:56.912Z,26.5
2019-03-25T22:47:08.990Z,22.6
2019-03-25T22:47:22.040Z,15.9
2019-03-25T22:47:34.118Z,14.4
2019-03-25T22:47:46.209Z,15
2019-03-25T22:47:58.296Z,19.9
2019-03-25T22:48:12.317Z,21.4
2019-03-25T22:48:24.441Z,21.299999
2019-03-25T22:48:36.495Z,19.1
2019-03-25T22:48:48.595Z,19.1
2019-03-25T22:49:00.728Z,16.700001
2019-03-25T22:49:12.783Z,17.299999
2019-03-25T22:49:24.863Z,17.5
2019-03-25T22:49:37.945Z,20.4
2019-03-25T22:49:50.003Z,23
2019-03-25T22:50:02.041Z,24.1
2019-03-25T22:50:14.103Z,28.1
2019-03-25T22:50:26.180Z,24.4
2019-03-25T22:50:38.284Z,25.299999
2019-03-25T22:50:50.333Z,23.700001
2019-03-25T22:51:02.377Z,22.5
2019-03-25T22:51:14.437Z,17.1
2019-03-25T22:51:26.502Z,18.700001
2019-03-25T22:51:38.567Z,21
2019-03-25T22:51:50.615Z,30.299999
2019-03-25T22:52:02.709Z,33.099998
2019-03-25T22:52:14.765Z,29.200001
2019-03-25T22:52:26.837Z,22
2019-03-25T22:52:38.917Z,19.799999
2019-03-25T22:52:50.993Z,21.200001
2019-03-25T22:53:03.054Z,26.700001
2019-03-25T22:53:15.096Z,22.200001
2019-03-25T22:53:27.152Z,24.799999
2019-03-25T22:53:39.201Z,27.4
2019-03-25T22:53:51.275Z,30.1
2019-03-25T22:54:03.333Z,23.799999
2019-03-25T22:54:15.402Z,21
2019-03-25T22:54:27.475Z,19.1
2019-03-25T22:54:39.605Z,24.6
2019-03-25T22:54:51.653Z,19.700001
2019-03-25T22:55:03.730Z,16.299999
2019-03-25T22:55:15.830Z,17.700001
2019-03-25T22:55:29.991Z,16.9
2019-03-25T22:55:43.049Z,17.6
2019-03-25T22:55:55.162Z,20.200001
2019-03-25T22:56:07.209Z,18.200001
2019-03-25T22:56:19.267Z,23.1
2019-03-25T22:56:31.324Z,24.1
2019-03-25T22:56:43.391Z,18.5
2019-03-25T22:56:55.459Z,26
2019-03-25T22:57:07.521Z,25.9
2019-03-25T22:57:19.633Z,16.5
2019-03-25T22:57:31.680Z,16.6
2019-03-25T22:57:43.734Z,22.6
2019-03-25T22:57:55.863Z,23.299999
2019-03-25T22:58:07.854Z,23.4
2019-03-25T22:58:19.910Z,22.1
2019-03-25T22:58:31.976Z,19.6
2019-03-25T22:58:44.090Z,18.6
2019-03-25T22:58:56.156Z,22.799999
2019-03-25T22:59:09.219Z,28.1
2019-03-25T22:59:21.279Z,27.6
2019-03-25T22:59:33.343Z,19.9
2019-03-25T22:59:45.397Z,17.4
2019-03-25T22:59:57.493Z,18.1
2019-03-25T23:00:09.558Z,21.299999
2019-03-25T23:00:21.657Z,23
2019-03-25T23:00:33.666Z,26.200001
2019-03-25T23:00:45.725Z,21.1
2019-03-25T23:00:57.868Z,20.5
2019-03-25T23:01:09.913Z,21.700001
2019-03-25T23:01:21.961Z,22.1
2019-03-25T23:01:34.003Z,22.4
2019-03-25T23:01:46.083Z,23.799999
2019-03-25T23:01:58.130Z,28.799999
2019-03-25T23:02:10.207Z,23.5
2019-03-25T23:02:22.284Z,23.1
2019-03-25T23:02:34.326Z,21.4
2019-03-25T23:02:46.364Z,20.5
2019-03-25T23:02:58.436Z,20.299999
2019-03-25T23:03:10.490Z,19.6
2019-03-25T23:03:22.547Z,19.700001
2019-03-25T23:03:42.510Z,20
2019-03-25T23:03:55.562Z,19.700001
2019-03-25T23:04:07.603Z,15.9
2019-03-25T23:04:19.664Z,16.5
2019-03-25T23:04:31.711Z,17.9
2019-03-25T23:04:43.794Z,19.9
2019-03-25T23:04:55.916Z,24.1
2019-03-25T23:05:08.030Z,24.5
2019-03-25T23:05:20.084Z,24.6
2019-03-25T23:05:32.177Z,28.299999
2019-03-25T23:05:44.226Z,23.200001
2019-03-25T23:05:56.285Z,22.200001
2019-03-25T23:06:08.335Z,22.799999
2019-03-25T23:06:21.384Z,23.5
2019-03-25T23:06:33.431Z,27.6
2019-03-25T23:06:45.478Z,25.200001
2019-03-25T23:06:57.550Z,21.9
2019-03-25T23:07:09.602Z,16.4
2019-03-25T23:07:22.665Z,18.5
2019-03-25T23:07:34.736Z,19.799999
2019-03-25T23:07:47.778Z,21
2019-03-25T23:07:59.852Z,21.5
2019-03-25T23:08:11.908Z,18.4
2019-03-25T23:08:24.941Z,20.299999
2019-03-25T23:08:36.986Z,19.5
2019-03-25T23:08:49.080Z,15.6
2019-03-25T23:09:02.118Z,21.200001
2019-03-25T23:09:14.181Z,23.4
2019-03-25T23:09:26.234Z,26.4
2019-03-25T23:09:38.309Z,26.6
2019-03-25T23:09:50.353Z,22
2019-03-25T23:10:02.421Z,18.700001
2019-03-25T23:10:15.455Z,17.799999
2019-03-25T23:10:27.514Z,19.6
2019-03-25T23:10:39.657Z,25.1
2019-03-25T23:10:51.699Z,25.200001
2019-03-25T23:11:03.781Z,19.1
2019-03-25T23:11:15.846Z,16.299999
2019-03-25T23:11:27.909Z,15.7
2019-03-25T23:11:39.967Z,19.5
2019-03-25T23:11:52.024Z,17.299999
2019-03-25T23:12:04.081Z,23.200001
2019-03-25T23:12:16.138Z,27.1
2019-03-25T23:12:28.285Z,28.4
2019-03-25T23:12:40.329Z,22.299999
2019-03-25T23:12:52.383Z,22
2019-03-25T23:13:04.435Z,19.1
2019-03-25T23:13:16.472Z,21.5
2019-03-25T23:13:28.512Z,19.200001
2019-03-25T23:13:40.682Z,19.9
2019-03-25T23:13:52.754Z,22
2019-03-25T23:14:04.812Z,18
2019-03-25T23:14:16.874Z,20.6
2019-03-25T23:14:28.951Z,25.1
2019-03-25T23:14:41.036Z,29.5
2019-03-25T23:14:53.077Z,24.200001
2019-03-25T23:15:05.171Z,22.9
2019-03-25T23:15:17.188Z,25.700001
2019-03-25T23:15:29.254Z,25.200001
2019-03-25T23:15:41.302Z,19.6
2019-03-25T23:15:53.372Z,23.9
2019-03-25T23:16:05.419Z,28.4
2019-03-25T23:16:18.448Z,26.9
2019-03-25T23:16:30.511Z,23.6
2019-03-25T23:16:42.565Z,29.1
2019-03-25T23:16:54.631Z,32
2019-03-25T23:17:06.684Z,27.4
2019-03-25T23:17:18.723Z,22.5
2019-03-25T23:17:30.795Z,19.9
2019-03-25T23:17:42.861Z,21.700001
2019-03-25T23:17:54.894Z,23.9
2019-03-25T23:18:06.965Z,26.1
2019-03-25T23:18:20.005Z,20.4
2019-03-25T23:18:32.060Z,19.200001
2019-03-25T23:18:44.097Z,21.1
2019-03-25T23:18:56.129Z,22
2019-03-25T23:19:08.168Z,23.299999
2019-03-25T23:19:20.208Z,19.299999
2019-03-25T23:19:32.269Z,23.700001